Time,TemperatureF,DewpointF,PressureIn,WindDirection,WindDirectionDegrees,WindSpeedMPH,WindSpeedGustMPH,Humidity,HourlyPrecipIn,Conditions,Clouds,dailyrainin,SoftwareType,DateUTC
2013-04-07 00:00:00,52.3,49.2,29.48,SW,220,4.0,10.0,89,0.04, +TSGR FG,SKC,-99.99,VWS V12.07,2013-04-07 05:00:00,
2013-04-07 00:05:00,52.1,49.3,29.48,SSW,195,4.0,7.0,90,0.05, +TSGR FG,SKC,-99.99,VWS V12.07,2013-04-07 05:05:00,
2013-04-07 00:15:00,52.0,49.5,29.48,West,259,1.0,5.0,91,0.05, +TSGR FG,SKC,-99.99,VWS V12.07,2013-04-07 05:15:00,
2013-04-07 00:20:00,51.9,49.4,29.48,WSW,257,2.0,6.0,91,0.05, +TSGR FG,SKC,-99.99,VWS V12.07,2013-04-07 05:20:00,
2013-04-07 00:25:00,51.8,49.3,29.48,West,265,4.0,7.0,91,0.05, +TSGR FG,SKC,-99.99,VWS V12.07,2013-04-07 05:25:00,
2013-04-07 00:30:00,51.8,49.3,29.48,SSE,168,5.0,7.0,91,0.05, +TSGR FG,SKC,-99.99,VWS V12.07,2013-04-07 05:30:00,
2013-04-07 00:35:00,51.8,49.5,29.49,WSW,248,1.0,7.0,92,0.04, +TSGR FG,SKC,-99.99,VWS V12.07,2013-04-07 05:35:00,
2013-04-07 00:40:00,51.9,49.7,29.49,North,355,3.0,11.0,92,0.04, +TSGR FG,SKC,-99.99,VWS V12.07,2013-04-07 05:40:00,
2013-04-07 00:45:00,52.0,49.8,29.48,SW,229,1.0,9.0,92,0.03, +TSGR FG,SKC,-99.99,VWS V12.07,2013-04-07 05:45:00,
2013-04-07 00:55:00,52.0,49.8,29.49,SSW,202,3.0,12.0,92,0.01, +TSGR FG,SKC,-99.99,VWS V12.07,2013-04-07 05:55:00,
2013-04-07 01:00:00,52.0,49.8,29.49,WSW,244,2.0,12.0,92,0.01, +TSGR FG,SKC,-99.99,VWS V12.07,2013-04-07 06:00:00,
2013-04-07 01:05:00,52.0,49.8,29.50,WNW,299,4.0,7.0,92,0.01, +TSGR FG,SKC,-99.99,VWS V12.07,2013-04-07 06:05:00,
2013-04-07 01:10:00,52.0,49.8,29.49,West,270,2.0,7.0,92,0.01, +TSGR FG,SKC,-99.99,VWS V12.07,2013-04-07 06:10:00,
2013-04-07 01:15:00,52.0,49.8,29.50,SW,217,0.0,6.0,92,0.00, +TSGR FG,SKC,-99.99,VWS V12.07,2013-04-07 06:15:00,
2013-04-07 01:25:00,51.9,49.7,29.50,West,265,5.0,8.0,92,0.00, +TSGR FG,SKC,-99.99,VWS V12.07,2013-04-07 06:25:00,
2013-04-07 01:30:00,51.8,49.3,29.50,WNW,283,1.0,8.0,91,0.00, +TSGR FG,SKC,-99.99,VWS V12.07,2013-04-07 06:30:00,
2013-04-07 01:35:00,51.5,48.7,29.50,WNW,292,5.0,11.0,90,0.00, +TSGR FG,SKC,-99.99,VWS V12.07,2013-04-07 06:35:00,
2013-04-07 01:40:00,51.3,48.5,29.51,West,264,4.0,11.0,90,0.00, +TSGR FG,SKC,-99.99,VWS V12.07,2013-04-07 06:40:00,
2013-04-07 01:50:00,50.8,47.7,29.51,WSW,244,3.0,10.0,89,0.00, +TSGR FG,SKC,-99.99,VWS V12.07,2013-04-07 06:50:00,
2013-04-07 01:55:00,50.6,47.2,29.51,West,271,6.0,10.0,88,0.00, +TSGR FG,SKC,-99.99,VWS V12.07,2013-04-07 06:55:00,
2013-04-07 02:05:00,50.1,46.4,29.52,WNW,300,3.0,7.0,87,0.00, +TSGR FG,SKC,-99.99,VWS V12.07,2013-04-07 07:05:00,
2013-04-07 02:10:00,50.0,46.3,29.52,WNW,294,4.0,7.0,87,0.00, +TSGR FG,SKC,-99.99,VWS V12.07,2013-04-07 07:10:00,
2013-04-07 02:15:00,49.9,46.2,29.52,WSW,243,2.0,9.0,87,0.00, +TSGR FG,SKC,-99.99,VWS V12.07,2013-04-07 07:15:00,
2013-04-07 02:20:00,49.7,45.7,29.52,WSW,254,3.0,9.0,86,0.00, +TSGR FG,SKC,-99.99,VWS V12.07,2013-04-07 07:20:00,
2013-04-07 02:25:00,49.5,45.2,29.53,WNW,282,3.0,14.0,85,0.00, +TSGR FG,SKC,-99.99,VWS V12.07,2013-04-07 07:25:00,
2013-04-07 02:30:00,49.3,45.0,29.53,WNW,286,1.0,14.0,85,0.00, +TSGR FG,SKC,-99.99,VWS V12.07,2013-04-07 07:30:00,
2013-04-07 02:35:00,48.9,44.3,29.53,NW,316,5.0,9.0,84,0.00, +TSGR FG,SKC,-99.99,VWS V12.07,2013-04-07 07:35:00,
2013-04-07 02:40:00,48.3,43.1,29.54,WNW,291,7.0,13.0,82,0.00, +TSGR FG,SKC,-99.99,VWS V12.07,2013-04-07 07:40:00,
2013-04-07 02:45:00,47.5,42.0,29.54,WNW,296,5.0,14.0,81,0.00, +TSGR FG,SKC,-99.99,VWS V12.07,2013-04-07 07:45:00,
2013-04-07 02:50:00,46.7,41.2,29.55,NNW,338,3.0,22.0,81,0.00, +TSGR FG,SKC,-99.99,VWS V12.07,2013-04-07 07:50:00,
2013-04-07 02:55:00,46.1,40.9,29.55,NNW,331,4.0,10.0,82,0.00, +TSGR FG,SKC,-99.99,VWS V12.07,2013-04-07 07:55:00,
2013-04-07 03:00:00,45.8,40.3,29.55,NW,313,7.0,11.0,81,0.00, +TSGR FG,SKC,-99.99,VWS V12.07,2013-04-07 08:00:00,
2013-04-07 03:10:00,45.1,40.2,29.56,WNW,296,5.0,13.0,83,0.00, +TSGR FG,SKC,-99.99,VWS V12.07,2013-04-07 08:10:00,
2013-04-07 03:15:00,44.9,39.8,29.57,West,264,6.0,12.0,82,0.00, +TSGR FG,SKC,-99.99,VWS V12.07,2013-04-07 08:15:00,
2013-04-07 03:20:00,44.7,39.9,29.57,WNW,288,4.0,12.0,83,0.00, +TSGR FG,SKC,-99.99,VWS V12.07,2013-04-07 08:20:00,
2013-04-07 03:25:00,44.4,39.6,29.57,WNW,284,6.0,12.0,83,0.00, +TSGR FG,SKC,-99.99,VWS V12.07,2013-04-07 08:25:00,
2013-04-07 03:35:00,43.9,38.5,29.58,WNW,300,9.0,13.0,81,0.00, +TSGR FG,SKC,-99.99,VWS V12.07,2013-04-07 08:35:00,
2013-04-07 03:40:00,43.8,38.7,29.58,NNW,330,5.0,13.0,82,0.00, +TSGR FG,SKC,-99.99,VWS V12.07,2013-04-07 08:40:00,
2013-04-07 03:45:00,43.7,38.9,29.58,WNW,289,5.0,9.0,83,0.00, +TSGR FG,SKC,-99.99,VWS V12.07,2013-04-07 08:45:00,
2013-04-07 03:50:00,43.8,39.3,29.59,West,267,3.0,11.0,84,0.00, +TSGR FG,SKC,-99.99,VWS V12.07,2013-04-07 08:50:00,
2013-04-07 03:55:00,43.7,39.2,29.58,West,277,7.0,11.0,84,0.00, +TSGR FG,SKC,-99.99,VWS V12.07,2013-04-07 08:55:00,
2013-04-07 04:00:00,43.6,39.1,29.59,West,272,7.0,11.0,84,0.00, +TSGR FG,SKC,-99.99,VWS V12.07,2013-04-07 09:00:00,
2013-04-07 04:05:00,43.5,38.7,29.59,West,277,4.0,14.0,83,0.00, +TSGR FG,SKC,-99.99,VWS V12.07,2013-04-07 09:05:00,
2013-04-07 04:10:00,43.3,38.8,29.59,West,272,6.0,14.0,84,0.00, +TSGR FG,SKC,-99.99,VWS V12.07,2013-04-07 09:10:00,
2013-04-07 04:20:00,43.1,38.6,29.60,WNW,301,5.0,15.0,84,0.00, +TSGR FG,SKC,-99.99,VWS V12.07,2013-04-07 09:20:00,
2013-04-07 04:25:00,42.9,38.4,29.60,WNW,298,8.0,13.0,84,0.00, +TSGR FG,SKC,-99.99,VWS V12.07,2013-04-07 09:25:00,
2013-04-07 04:30:00,42.7,37.9,29.60,SSE,149,4.0,13.0,83,0.00, +TSGR FG,SKC,-99.99,VWS V12.07,2013-04-07 09:30:00,
2013-04-07 04:35:00,42.5,37.7,29.60,West,269,1.0,15.0,83,0.00, +TSGR FG,SKC,-99.99,VWS V12.07,2013-04-07 09:35:00,
2013-04-07 04:45:00,42.2,37.1,29.61,NE,56,1.0,11.0,82,0.00, +TSGR FG,SKC,-99.99,VWS V12.07,2013-04-07 09:45:00,
2013-04-07 04:55:00,42.0,37.2,29.62,West,267,6.0,7.0,83,0.00, +TSGR FG,SKC,-99.99,VWS V12.07,2013-04-07 09:55:00,
2013-04-07 05:00:00,41.9,37.1,29.62,NW,304,3.0,9.0,83,0.00, +TSGR FG,SKC,-99.99,VWS V12.07,2013-04-07 10:00:00,
2013-04-07 05:05:00,41.8,37.0,29.62,WSW,257,6.0,13.0,83,0.00, +TSGR FG,SKC,-99.99,VWS V12.07,2013-04-07 10:05:00,
2013-04-07 05:15:00,41.8,37.0,29.63,WNW,292,5.0,11.0,83,0.00, +TSGR FG,SKC,-99.99,VWS V12.07,2013-04-07 10:15:00,
2013-04-07 05:20:00,41.7,36.9,29.64,WNW,297,3.0,11.0,83,0.00, +TSGR FG,SKC,-99.99,VWS V12.07,2013-04-07 10:20:00,
2013-04-07 05:25:00,41.6,36.8,29.64,NNW,338,4.0,9.0,83,0.00, +TSGR FG,SKC,-99.99,VWS V12.07,2013-04-07 10:25:00,
2013-04-07 05:30:00,41.5,36.7,29.64,WNW,284,1.0,9.0,83,0.00, +TSGR FG,SKC,-99.99,VWS V12.07,2013-04-07 10:30:00,
2013-04-07 05:35:00,41.5,36.7,29.65,WNW,296,8.0,9.0,83,0.00, +TSGR FG,SKC,-99.99,VWS V12.07,2013-04-07 10:35:00,
2013-04-07 05:45:00,41.3,35.9,29.66,WNW,302,2.0,10.0,81,0.00, +TSGR FG,SKC,-99.99,VWS V12.07,2013-04-07 10:45:00,
2013-04-07 05:50:00,41.2,35.8,29.67,West,271,8.0,11.0,81,0.00, +TSGR FG,SKC,-99.99,VWS V12.07,2013-04-07 10:50:00,
2013-04-07 05:55:00,41.1,35.7,29.67,WNW,298,2.0,12.0,81,0.00, +TSGR FG,SKC,-99.99,VWS V12.07,2013-04-07 10:55:00,
2013-04-07 06:00:00,41.0,35.6,29.67,WNW,303,9.0,12.0,81,0.00, +TSGR FG,SKC,-99.99,VWS V12.07,2013-04-07 11:00:00,
2013-04-07 06:10:00,40.8,35.4,29.68,NW,324,7.0,12.0,81,0.00, +TSGR FG,SKC,-99.99,VWS V12.07,2013-04-07 11:10:00,
2013-04-07 06:15:00,40.7,35.3,29.68,WNW,289,3.0,10.0,81,0.00, +TSGR FG,SKC,-99.99,VWS V12.07,2013-04-07 11:15:00,
2013-04-07 06:20:00,40.6,35.2,29.69,NW,305,10.0,11.0,81,0.00, +TSGR FG,SKC,-99.99,VWS V12.07,2013-04-07 11:20:00,
2013-04-07 06:30:00,40.3,34.9,29.69,NNW,341,2.0,9.0,81,0.00, +TSGR FG,SKC,-99.99,VWS V12.07,2013-04-07 11:30:00,
2013-04-07 06:35:00,40.2,34.8,29.70,NNW,335,7.0,10.0,81,0.00, +TSGR FG,SKC,-99.99,VWS V12.07,2013-04-07 11:35:00,
2013-04-07 06:40:00,40.1,34.8,29.70,WNW,298,3.0,10.0,81,0.00, +TSGR FG,SKC,-99.99,VWS V12.07,2013-04-07 11:40:00,
2013-04-07 06:45:00,40.0,34.7,29.71,WNW,287,3.0,12.0,81,0.00, +TSGR FG,SKC,-99.99,VWS V12.07,2013-04-07 11:45:00,
2013-04-07 06:55:00,39.9,34.9,29.72,West,266,4.0,11.0,82,0.00, +TSGR FG,SKC,-99.99,VWS V12.07,2013-04-07 11:55:00,
2013-04-07 07:05:00,39.7,34.7,29.73,NNW,330,2.0,7.0,82,0.00, +TSGR FG,SKC,-99.99,VWS V12.07,2013-04-07 12:05:00,
2013-04-07 07:10:00,39.7,35.0,29.74,NW,313,3.0,8.0,83,0.00, +TSGR FG,SKC,-99.99,VWS V12.07,2013-04-07 12:10:00,
2013-04-07 07:15:00,39.7,35.0,29.74,West,281,0.0,9.0,83,0.00, +TSGR FG,SKC,-99.99,VWS V12.07,2013-04-07 12:15:00,
2013-04-07 07:20:00,39.8,35.1,29.75,NW,321,1.0,9.0,83,0.00, +TSGR FG,SKC,-99.99,VWS V12.07,2013-04-07 12:20:00,
2013-04-07 07:30:00,39.8,35.1,29.75,WNW,285,1.0,6.0,83,0.00, +TSGR FG,SKC,-99.99,VWS V12.07,2013-04-07 12:30:00,
2013-04-07 07:35:00,39.9,35.2,29.76,NW,315,2.0,4.0,83,0.00, +TSGR FG,SKC,-99.99,VWS V12.07,2013-04-07 12:35:00,
2013-04-07 07:40:00,40.0,35.3,29.77,WNW,301,1.0,4.0,83,0.00, +TSGR FG,SKC,-99.99,VWS V12.07,2013-04-07 12:40:00,
2013-04-07 07:45:00,39.9,35.2,29.77,West,265,1.0,5.0,83,0.00, +TSGR FG,SKC,-99.99,VWS V12.07,2013-04-07 12:45:00,
2013-04-07 07:50:00,39.8,34.8,29.78,West,279,5.0,5.0,82,0.00, +TSGR FG,SKC,-99.99,VWS V12.07,2013-04-07 12:50:00,
2013-04-07 07:55:00,39.6,34.9,29.78,WNW,303,0.0,6.0,83,0.00, +TSGR FG,SKC,-99.99,VWS V12.07,2013-04-07 12:55:00,
2013-04-07 08:05:00,39.4,34.7,29.79,West,273,0.0,6.0,83,0.00, +TSGR FG,SKC,-99.99,VWS V12.07,2013-04-07 13:05:00,
2013-04-07 08:15:00,39.3,34.6,29.79,NW,322,2.0,3.0,83,0.00, +TSGR FG,SKC,-99.99,VWS V12.07,2013-04-07 13:15:00,
2013-04-07 08:20:00,39.3,34.6,29.80,WNW,290,2.0,5.0,83,0.00, +TSGR FG,SKC,-99.99,VWS V12.07,2013-04-07 13:20:00,
2013-04-07 08:25:00,39.3,34.6,29.80,NNW,348,6.0,6.0,83,0.00, +TSGR FG,SKC,-99.99,VWS V12.07,2013-04-07 13:25:00,
2013-04-07 08:35:00,39.2,34.2,29.80,WNW,291,2.0,8.0,82,0.00, +TSGR FG,SKC,-99.99,VWS V12.07,2013-04-07 13:35:00,
2013-04-07 08:45:00,39.1,34.4,29.81,NW,305,3.0,6.0,83,0.00, +TSGR FG,SKC,-99.99,VWS V12.07,2013-04-07 13:45:00,
2013-04-07 08:50:00,39.0,34.0,29.81,West,269,8.0,8.0,82,0.00, +TSGR FG,SKC,-99.99,VWS V12.07,2013-04-07 13:50:00,
2013-04-07 09:00:00,38.9,33.6,29.81,NW,306,3.0,7.0,81,0.00, +TSGR FG,SKC,-99.99,VWS V12.07,2013-04-07 14:00:00,
2013-04-07 09:05:00,38.9,33.6,29.81,NNW,338,3.0,8.0,81,0.00, +TSGR FG,SKC,-99.99,VWS V12.07,2013-04-07 14:05:00,
2013-04-07 09:10:00,38.9,33.3,29.82,West,273,1.0,10.0,80,0.00, +TSGR FG,SKC,-99.99,VWS V12.07,2013-04-07 14:10:00,
2013-04-07 09:20:00,39.1,33.8,29.82,West,265,4.0,9.0,81,0.00, +TSGR FG,SKC,-99.99,VWS V12.07,2013-04-07 14:20:00,
2013-04-07 09:25:00,39.2,33.9,29.82,WNW,299,2.0,7.0,81,0.00, +TSGR FG,SKC,-99.99,VWS V12.07,2013-04-07 14:25:00,
2013-04-07 09:30:00,39.3,34.0,29.82,West,274,7.0,8.0,81,0.00, +TSGR FG,SKC,-99.99,VWS V12.07,2013-04-07 14:30:00,
2013-04-07 09:35:00,39.4,34.1,29.82,NNW,333,2.0,6.0,81,0.00, +TSGR FG,SKC,-99.99,VWS V12.07,2013-04-07 14:35:00,
2013-04-07 09:40:00,39.5,34.2,29.83,WNW,296,4.0,7.0,81,0.00, +TSGR FG,SKC,-99.99,VWS V12.07,2013-04-07 14:40:00,
2013-04-07 09:50:00,39.5,34.2,29.83,NW,325,4.0,7.0,81,0.00, +TSGR FG,SKC,-99.99,VWS V12.07,2013-04-07 14:50:00,
2013-04-07 09:55:00,39.6,34.3,29.83,WSW,252,5.0,7.0,81,0.00, +TSGR FG,SKC,-99.99,VWS V12.07,2013-04-07 14:55:00,
2013-04-07 10:05:00,40.0,34.3,29.83,WNW,297,3.0,6.0,80,0.00, +TSGR FG,SKC,-99.99,VWS V12.07,2013-04-07 15:05:00,
2013-04-07 10:10:00,40.2,34.5,29.84,NW,321,4.0,8.0,80,0.00, +TSGR FG,SKC,-99.99,VWS V12.07,2013-04-07 15:10:00,
2013-04-07 10:15:00,40.3,34.3,29.84,WNW,285,4.0,7.0,79,0.00, +TSGR FG,SKC,-99.99,VWS V12.07,2013-04-07 15:15:00,
2013-04-07 10:20:00,40.4,34.4,29.84,NNW,331,3.0,7.0,79,0.00, +TSGR FG,SKC,-99.99,VWS V12.07,2013-04-07 15:20:00,
2013-04-07 10:30:00,40.5,34.5,29.85,NW,306,4.0,9.0,79,0.00, +TSGR FG,SKC,-99.99,VWS V12.07,2013-04-07 15:30:00,
2013-04-07 10:35:00,40.7,34.4,29.85,NNW,335,5.0,10.0,78,0.00, +TSGR FG,SKC,-99.99,VWS V12.07,2013-04-07 15:35:00,
2013-04-07 10:45:00,41.0,34.3,29.85,WSW,245,1.0,8.0,77,0.00, +TSGR FG,SKC,-99.99,VWS V12.07,2013-04-07 15:45:00,
2013-04-07 10:50:00,41.3,35.0,29.86,WNW,290,1.0,8.0,78,0.00, +TSGR FG,SKC,-99.99,VWS V12.07,2013-04-07 15:50:00,
2013-04-07 10:55:00,41.4,34.7,29.86,WNW,296,6.0,8.0,77,0.00, +TSGR FG,SKC,-99.99,VWS V12.07,2013-04-07 15:55:00,
2013-04-07 11:00:00,41.4,34.7,29.86,WSW,240,4.0,8.0,77,0.00, +TSGR FG,SKC,-99.99,VWS V12.07,2013-04-07 16:00:00,
2013-04-07 11:05:00,41.4,34.4,29.87,NW,326,4.0,8.0,76,0.00, +TSGR FG,SKC,-99.99,VWS V12.07,2013-04-07 16:05:00,
2013-04-07 11:10:00,41.5,34.8,29.87,West,281,6.0,8.0,77,0.00, +TSGR FG,SKC,-99.99,VWS V12.07,2013-04-07 16:10:00,
2013-04-07 11:20:00,42.1,35.1,29.87,WNW,303,1.0,9.0,76,0.00, +TSGR FG,SKC,-99.99,VWS V12.07,2013-04-07 16:20:00,
2013-04-07 11:25:00,42.3,35.3,29.87,NNW,334,5.0,7.0,76,0.00, +TSGR FG,SKC,-99.99,VWS V12.07,2013-04-07 16:25:00,
2013-04-07 11:30:00,42.7,35.7,29.87,NNW,346,4.0,9.0,76,0.00, +TSGR FG,SKC,-99.99,VWS V12.07,2013-04-07 16:30:00,
2013-04-07 11:40:00,42.7,35.0,29.87,NNW,329,0.0,13.0,74,0.00, +TSGR FG,SKC,-99.99,VWS V12.07,2013-04-07 16:40:00,
2013-04-07 11:45:00,43.0,35.3,29.88,West,272,2.0,7.0,74,0.00, +TSGR FG,SKC,-99.99,VWS V12.07,2013-04-07 16:45:00,
2013-04-07 11:50:00,43.1,35.4,29.88,West,265,4.0,9.0,74,0.00, +TSGR FG,SKC,-99.99,VWS V12.07,2013-04-07 16:50:00,
2013-04-07 11:55:00,43.3,35.6,29.88,NNW,332,4.0,7.0,74,0.00, +TSGR FG,SKC,-99.99,VWS V12.07,2013-04-07 16:55:00,
2013-04-07 12:00:00,43.7,35.6,29.88,West,280,5.0,7.0,73,0.00, +TSGR FG,SKC,-99.99,VWS V12.07,2013-04-07 17:00:00,
2013-04-07 12:05:00,43.5,35.1,29.88,WNW,301,2.0,8.0,72,0.00, +TSGR FG,SKC,-99.99,VWS V12.07,2013-04-07 17:05:00,
2013-04-07 12:10:00,43.9,36.2,29.88,West,263,5.0,8.0,74,0.00, +TSGR FG,SKC,-99.99,VWS V12.07,2013-04-07 17:10:00,
2013-04-07 12:20:00,44.5,36.4,29.88,NNE,17,3.0,9.0,73,0.00, +TSGR FG,SKC,-99.99,VWS V12.07,2013-04-07 17:20:00,
2013-04-07 12:25:00,45.1,36.6,29.88,WNW,284,4.0,13.0,72,0.00, +TSGR FG,SKC,-99.99,VWS V12.07,2013-04-07 17:25:00,
2013-04-07 12:30:00,45.3,36.5,29.88,WNW,286,4.0,13.0,71,0.00, +TSGR FG,SKC,-99.99,VWS V12.07,2013-04-07 17:30:00,
2013-04-07 12:35:00,45.2,36.0,29.88,North,5,6.0,7.0,70,0.00, +TSGR FG,SKC,-99.99,VWS V12.07,2013-04-07 17:35:00,
2013-04-07 12:45:00,45.0,36.5,29.88,NNW,339,3.0,7.0,72,0.00, +TSGR FG,SKC,-99.99,VWS V12.07,2013-04-07 17:45:00,
2013-04-07 12:50:00,45.0,35.8,29.88,WNW,292,4.0,8.0,70,0.00, +TSGR FG,SKC,-99.99,VWS V12.07,2013-04-07 17:50:00,
2013-04-07 13:00:00,45.7,36.5,29.88,NNW,338,2.0,8.0,70,0.00, +TSGR FG,SKC,-99.99,VWS V12.07,2013-04-07 18:00:00,
2013-04-07 13:05:00,45.9,36.7,29.88,NNW,327,3.0,8.0,70,0.00, +TSGR FG,SKC,-99.99,VWS V12.07,2013-04-07 18:05:00,
2013-04-07 13:10:00,46.0,36.8,29.88,NNW,333,2.0,8.0,70,0.00, +TSGR FG,SKC,-99.99,VWS V12.07,2013-04-07 18:10:00,
2013-04-07 13:15:00,46.3,37.1,29.88,North,5,7.0,7.0,70,0.00, +TSGR FG,SKC,-99.99,VWS V12.07,2013-04-07 18:15:00,
2013-04-07 13:25:00,47.2,37.2,29.88,WNW,299,2.0,9.0,68,0.00, +TSGR FG,SKC,-99.99,VWS V12.07,2013-04-07 18:25:00,
2013-04-07 13:30:00,46.9,36.5,29.88,NW,309,2.0,10.0,67,0.00, +TSGR FG,SKC,-99.99,VWS V12.07,2013-04-07 18:30:00,
2013-04-07 13:40:00,47.8,38.5,29.88,NNW,333,4.0,8.0,70,0.00, +TSGR FG,SKC,-99.99,VWS V12.07,2013-04-07 18:40:00,
2013-04-07 13:45:00,48.2,38.2,29.88,West,271,0.0,4.0,68,0.00, +TSGR FG,SKC,-99.99,VWS V12.07,2013-04-07 18:45:00,
2013-04-07 13:50:00,48.3,37.1,29.88,North,355,4.0,7.0,65,0.00, +TSGR FG,SKC,-99.99,VWS V12.07,2013-04-07 18:50:00,
2013-04-07 14:05:00,48.7,37.1,29.88,WNW,292,3.0,8.0,64,0.00, +TSGR FG,SKC,-99.99,VWS V12.07,2013-04-07 19:05:00,
2013-04-07 14:10:00,48.7,37.5,29.88,NW,319,1.0,8.0,65,0.00, +TSGR FG,SKC,-99.99,VWS V12.07,2013-04-07 19:10:00,
2013-04-07 14:15:00,49.3,38.4,29.88,West,279,2.0,4.0,66,0.00, +TSGR FG,SKC,-99.99,VWS V12.07,2013-04-07 19:15:00,
2013-04-07 14:25:00,49.0,38.2,29.88,West,277,3.0,7.0,66,0.00, +TSGR FG,SKC,-99.99,VWS V12.07,2013-04-07 19:25:00,
2013-04-07 14:30:00,49.4,38.5,29.88,WNW,292,4.0,7.0,66,0.00, +TSGR FG,SKC,-99.99,VWS V12.07,2013-04-07 19:30:00,
2013-04-07 14:35:00,50.1,37.6,29.88,West,275,0.0,5.0,62,0.00, +TSGR FG,SKC,-99.99,VWS V12.07,2013-04-07 19:35:00,
2013-04-07 14:40:00,50.1,37.2,29.88,West,275,0.0,7.0,61,0.00, +TSGR FG,SKC,-99.99,VWS V12.07,2013-04-07 19:40:00,
2013-04-07 14:45:00,50.0,37.1,29.88,West,259,4.0,6.0,61,0.00, +TSGR FG,SKC,-99.99,VWS V12.07,2013-04-07 19:45:00,
2013-04-07 14:50:00,50.2,37.7,29.89,WNW,299,3.0,6.0,62,0.00, +TSGR FG,SKC,-99.99,VWS V12.07,2013-04-07 19:50:00,
2013-04-07 15:00:00,50.6,38.5,29.88,NW,318,4.0,6.0,63,0.00, +TSGR FG,SKC,-99.99,VWS V12.07,2013-04-07 20:00:00,
2013-04-07 15:05:00,50.2,37.7,29.88,WSW,256,0.0,8.0,62,0.00, +TSGR FG,SKC,-99.99,VWS V12.07,2013-04-07 20:05:00,
2013-04-07 15:10:00,50.8,38.3,29.88,West,279,4.0,8.0,62,0.00, +TSGR FG,SKC,-99.99,VWS V12.07,2013-04-07 20:10:00,
2013-04-07 15:20:00,50.6,38.1,29.88,North,360,2.0,8.0,62,0.00, +TSGR FG,SKC,-99.99,VWS V12.07,2013-04-07 20:20:00,
2013-04-07 15:30:00,50.9,37.5,29.88,West,270,0.0,6.0,60,0.00, +TSGR FG,SKC,-99.99,VWS V12.07,2013-04-07 20:30:00,
2013-04-07 15:40:00,51.4,37.1,29.87,West,279,0.0,5.0,58,0.00, +TSGR FG,SKC,-99.99,VWS V12.07,2013-04-07 20:40:00,
2013-04-07 15:50:00,52.0,38.1,29.87,WSW,246,2.0,6.0,59,0.00, +TSGR FG,SKC,-99.99,VWS V12.07,2013-04-07 20:50:00,
2013-04-07 16:00:00,52.1,38.2,29.87,WSW,253,1.0,7.0,59,0.00, +TSGR FG,SKC,-99.99,VWS V12.07,2013-04-07 21:00:00,
2013-04-07 16:15:00,51.7,37.4,29.87,North,5,5.0,6.0,58,0.00, +TSGR FG,SKC,-99.99,VWS V12.07,2013-04-07 21:15:00,
2013-04-07 16:20:00,51.6,36.9,29.87,WNW,302,4.0,7.0,57,0.00, +TSGR FG,SKC,-99.99,VWS V12.07,2013-04-07 21:20:00,
2013-04-07 16:30:00,52.1,38.2,29.88,WNW,285,1.0,7.0,59,0.00, +TSGR FG,SKC,-99.99,VWS V12.07,2013-04-07 21:30:00,
2013-04-07 16:35:00,52.5,37.3,29.88,WNW,284,0.0,3.0,56,0.00, +TSGR FG,SKC,-99.99,VWS V12.07,2013-04-07 21:35:00,
2013-04-07 16:40:00,52.8,37.5,29.88,NW,315,1.0,5.0,56,0.00, +TSGR FG,SKC,-99.99,VWS V12.07,2013-04-07 21:40:00,
2013-04-07 16:45:00,53.0,37.3,29.88,SE,143,0.0,5.0,55,0.00, +TSGR FG,SKC,-99.99,VWS V12.07,2013-04-07 21:45:00,
2013-04-07 16:50:00,53.2,38.4,29.88,North,9,0.0,5.0,57,0.00, +TSGR FG,SKC,-99.99,VWS V12.07,2013-04-07 21:50:00,
2013-04-07 16:55:00,53.4,37.2,29.88,North,5,0.0,2.0,54,0.00, +TSGR FG,SKC,-99.99,VWS V12.07,2013-04-07 21:55:00,
2013-04-07 17:05:00,51.0,36.8,29.88,ESE,109,5.0,12.0,58,0.00, +TSGR FG,SKC,-99.99,VWS V12.07,2013-04-07 22:05:00,
2013-04-07 17:10:00,49.1,36.2,29.88,ESE,117,7.0,12.0,61,0.00, +TSGR FG,SKC,-99.99,VWS V12.07,2013-04-07 22:10:00,
2013-04-07 17:15:00,47.9,36.3,29.89,East,98,6.0,11.0,64,0.00, +TSGR FG,SKC,-99.99,VWS V12.07,2013-04-07 22:15:00,
2013-04-07 17:20:00,47.4,35.8,29.89,ENE,57,6.0,12.0,64,0.00, +TSGR FG,SKC,-99.99,VWS V12.07,2013-04-07 22:20:00,
2013-04-07 17:30:00,45.9,35.2,29.89,ESE,109,8.0,14.0,66,0.00, +TSGR FG,SKC,-99.99,VWS V12.07,2013-04-07 22:30:00,
2013-04-07 17:35:00,45.4,35.5,29.89,East,101,6.0,14.0,68,0.00, +TSGR FG,SKC,-99.99,VWS V12.07,2013-04-07 22:35:00,
2013-04-07 17:40:00,45.4,35.5,29.89,East,95,6.0,14.0,68,0.00, +TSGR FG,SKC,-99.99,VWS V12.07,2013-04-07 22:40:00,
2013-04-07 17:45:00,45.4,35.5,29.89,SE,132,13.0,13.0,68,0.00, +TSGR FG,SKC,-99.99,VWS V12.07,2013-04-07 22:45:00,
2013-04-07 17:55:00,44.6,35.1,29.89,East,90,9.0,14.0,69,0.00, +TSGR FG,SKC,-99.99,VWS V12.07,2013-04-07 22:55:00,
2013-04-07 18:05:00,43.9,34.8,29.89,East,86,6.0,12.0,70,0.00, +TSGR FG,SKC,-99.99,VWS V12.07,2013-04-07 23:05:00,
2013-04-07 18:10:00,43.7,34.6,29.90,East,84,3.0,12.0,70,0.00, +TSGR FG,SKC,-99.99,VWS V12.07,2013-04-07 23:10:00,
2013-04-07 18:15:00,43.6,34.8,29.89,East,92,6.0,7.0,71,0.00, +TSGR FG,SKC,-99.99,VWS V12.07,2013-04-07 23:15:00,
2013-04-07 18:20:00,43.4,34.3,29.90,ENE,76,8.0,9.0,70,0.00, +TSGR FG,SKC,-99.99,VWS V12.07,2013-04-07 23:20:00,
2013-04-07 18:30:00,43.1,34.3,29.90,ESE,107,5.0,11.0,71,0.00, +TSGR FG,SKC,-99.99,VWS V12.07,2013-04-07 23:30:00,
2013-04-07 18:35:00,42.9,34.2,29.90,East,92,4.0,9.0,71,0.00, +TSGR FG,SKC,-99.99,VWS V12.07,2013-04-07 23:35:00,
2013-04-07 18:40:00,42.7,34.0,29.90,East,98,11.0,11.0,71,0.00, +TSGR FG,SKC,-99.99,VWS V12.07,2013-04-07 23:40:00,
2013-04-07 18:45:00,42.6,34.2,29.90,ESE,114,7.0,11.0,72,0.00, +TSGR FG,SKC,-99.99,VWS V12.07,2013-04-07 23:45:00,
2013-04-07 18:50:00,42.5,34.1,29.90,ESE,109,5.0,11.0,72,0.00, +TSGR FG,SKC,-99.99,VWS V12.07,2013-04-07 23:50:00,
2013-04-07 18:55:00,42.4,34.0,29.89,ESE,121,6.0,8.0,72,0.00, +TSGR FG,SKC,-99.99,VWS V12.07,2013-04-07 23:55:00,
2013-04-07 19:00:00,42.2,33.8,29.90,East,92,5.0,11.0,72,0.00, +TSGR FG,SKC,-99.99,VWS V12.07,2013-04-08 00:00:00,
2013-04-07 19:10:00,41.8,33.8,29.90,East,97,5.0,11.0,73,0.00, +TSGR FG,SKC,-99.99,VWS V12.07,2013-04-08 00:10:00,
2013-04-07 19:20:00,41.3,33.3,29.90,East,101,4.0,7.0,73,0.00, +TSGR FG,SKC,-99.99,VWS V12.07,2013-04-08 00:20:00,
2013-04-07 19:25:00,41.1,33.5,29.90,East,90,5.0,7.0,74,0.00, +TSGR FG,SKC,-99.99,VWS V12.07,2013-04-08 00:25:00,
2013-04-07 19:30:00,41.0,33.4,29.90,East,97,5.0,7.0,74,0.00, +TSGR FG,SKC,-99.99,VWS V12.07,2013-04-08 00:30:00,
2013-04-07 19:35:00,40.9,33.3,29.90,SE,136,7.0,7.0,74,0.00, +TSGR FG,SKC,-99.99,VWS V12.07,2013-04-08 00:35:00,
2013-04-07 19:40:00,40.7,33.4,29.90,East,95,5.0,7.0,75,0.00, +TSGR FG,SKC,-99.99,VWS V12.07,2013-04-08 00:40:00,
2013-04-07 19:45:00,40.5,33.2,29.90,East,92,6.0,7.0,75,0.00, +TSGR FG,SKC,-99.99,VWS V12.07,2013-04-08 00:45:00,
2013-04-07 19:55:00,40.2,33.2,29.91,ESE,115,2.0,8.0,76,0.00, +TSGR FG,SKC,-99.99,VWS V12.07,2013-04-08 00:55:00,
2013-04-07 20:00:00,40.1,32.8,29.91,ESE,114,5.0,8.0,75,0.00, +TSGR FG,SKC,-99.99,VWS V12.07,2013-04-08 01:00:00,
2013-04-07 20:05:00,40.0,33.1,29.91,ESE,123,5.0,5.0,76,0.00, +TSGR FG,SKC,-99.99,VWS V12.07,2013-04-08 01:05:00,
2013-04-07 20:15:00,39.7,33.1,29.91,ESE,107,2.0,5.0,77,0.00, +TSGR FG,SKC,-99.99,VWS V12.07,2013-04-08 01:15:00,
2013-04-07 20:20:00,39.5,32.9,29.91,ESE,108,5.0,6.0,77,0.00, +TSGR FG,SKC,-99.99,VWS V12.07,2013-04-08 01:20:00,
2013-04-07 20:25:00,39.3,33.0,29.91,East,99,4.0,6.0,78,0.00, +TSGR FG,SKC,-99.99,VWS V12.07,2013-04-08 01:25:00,
2013-04-07 20:30:00,39.2,32.9,29.92,ESE,116,0.0,6.0,78,0.00, +TSGR FG,SKC,-99.99,VWS V12.07,2013-04-08 01:30:00,
2013-04-07 20:40:00,39.2,32.9,29.92,ESE,114,7.0,8.0,78,0.00, +TSGR FG,SKC,-99.99,VWS V12.07,2013-04-08 01:40:00,
2013-04-07 20:50:00,38.9,33.0,29.92,ESE,119,4.0,6.0,79,0.00, +TSGR FG,SKC,-99.99,VWS V12.07,2013-04-08 01:50:00,
2013-04-07 20:55:00,38.8,32.9,29.92,ESE,117,5.0,6.0,79,0.00, +TSGR FG,SKC,-99.99,VWS V12.07,2013-04-08 01:55:00,
2013-04-07 21:05:00,38.5,32.9,29.92,ESE,108,2.0,5.0,80,0.00, +TSGR FG,SKC,-99.99,VWS V12.07,2013-04-08 02:05:00,
2013-04-07 21:10:00,38.4,32.8,29.92,SE,132,5.0,5.0,80,0.00, +TSGR FG,SKC,-99.99,VWS V12.07,2013-04-08 02:10:00,
2013-04-07 21:20:00,38.3,33.0,29.92,SE,132,1.0,5.0,81,0.00, +TSGR FG,SKC,-99.99,VWS V12.07,2013-04-08 02:20:00,
2013-04-07 21:30:00,38.0,32.7,29.92,ESE,118,2.0,5.0,81,0.00, +TSGR FG,SKC,-99.99,VWS V12.07,2013-04-08 02:30:00,
2013-04-07 21:45:00,37.7,32.7,29.93,SE,130,2.0,4.0,82,0.00, +TSGR FG,SKC,-99.99,VWS V12.07,2013-04-08 02:45:00,
2013-04-07 21:50:00,37.7,32.7,29.92,SE,125,2.0,5.0,82,0.00, +TSGR FG,SKC,-99.99,VWS V12.07,2013-04-08 02:50:00,
2013-04-07 21:55:00,37.6,32.6,29.92,SE,125,2.0,4.0,82,0.00, +TSGR FG,SKC,-99.99,VWS V12.07,2013-04-08 02:55:00,
2013-04-07 22:00:00,37.5,32.8,29.92,SE,125,1.0,4.0,83,0.00, +TSGR FG,SKC,-99.99,VWS V12.07,2013-04-08 03:00:00,
2013-04-07 22:15:00,37.3,32.9,29.92,SE,128,1.0,5.0,84,0.00, +TSGR FG,SKC,-99.99,VWS V12.07,2013-04-08 03:15:00,
2013-04-07 22:25:00,37.0,32.3,29.91,SE,128,2.0,4.0,83,0.00, +TSGR FG,SKC,-99.99,VWS V12.07,2013-04-08 03:25:00,
2013-04-07 22:30:00,36.8,32.4,29.91,ESE,104,4.0,4.0,84,0.00, +TSGR FG,SKC,-99.99,VWS V12.07,2013-04-08 03:30:00,
2013-04-07 22:40:00,36.6,32.2,29.91,ESE,104,0.0,4.0,84,0.00, +TSGR FG,SKC,-99.99,VWS V12.07,2013-04-08 03:40:00,
2013-04-07 22:50:00,36.7,32.3,29.91,ESE,104,0.0,4.0,84,0.00, +TSGR FG,SKC,-99.99,VWS V12.07,2013-04-08 03:50:00,
2013-04-07 23:00:00,36.8,32.4,29.90,ESE,104,1.0,5.0,84,0.00, +TSGR FG,SKC,-99.99,VWS V12.07,2013-04-08 04:00:00,
2013-04-07 23:05:00,36.8,32.4,29.90,East,94,2.0,5.0,84,0.00, +TSGR FG,SKC,-99.99,VWS V12.07,2013-04-08 04:05:00,
2013-04-07 23:10:00,36.8,32.4,29.90,East,92,2.0,6.0,84,0.00, +TSGR FG,SKC,-99.99,VWS V12.07,2013-04-08 04:10:00,
2013-04-07 23:15:00,36.8,32.4,29.89,ESE,103,4.0,5.0,84,0.00, +TSGR FG,SKC,-99.99,VWS V12.07,2013-04-08 04:15:00,
2013-04-07 23:20:00,36.9,32.5,29.89,East,89,2.0,5.0,84,0.00, +TSGR FG,SKC,-99.99,VWS V12.07,2013-04-08 04:20:00,
2013-04-07 23:30:00,36.8,32.1,29.89,East,92,2.0,5.0,83,0.00, +TSGR FG,SKC,-99.99,VWS V12.07,2013-04-08 04:30:00,
2013-04-07 23:35:00,36.7,32.0,29.88,East,92,4.0,5.0,83,0.00, +TSGR FG,SKC,-99.99,VWS V12.07,2013-04-08 04:35:00,
2013-04-07 23:40:00,36.8,32.1,29.89,ESE,109,5.0,5.0,83,0.00, +TSGR FG,SKC,-99.99,VWS V12.07,2013-04-08 04:40:00,
2013-04-07 23:50:00,37.0,32.3,29.89,ESE,109,4.0,6.0,83,0.00, +TSGR FG,SKC,-99.99,VWS V12.07,2013-04-08 04:50:00,
2013-04-07 23:55:00,37.0,32.0,29.89,ESE,109,2.0,5.0,82,0.00, +TSGR FG,SKC,-99.99,VWS V12.07,2013-04-08 04:55:00,